ADDS METAR Data

Data at: 0533 UTC 19 Jan 2018

METAR for:KIWI (Wiscasset Arpt, ME, US)
Text:KIWI 190453Z AUTO 00000KT 10SM CLR M11/M13 A2990 RMK AO2 SLP127 I1000 T11111128 400001128
Temperature:-11.1°C ( 12°F)
Dewpoint:-12.8°C ( 9°F) [RH = 87%]
Pressure (altimeter):29.90 inches Hg (1012.6 mb) [Sea level pressure: 1012.7 mb]
Winds:calm
Visibility:10 or more sm (16+ km)
Ceiling:at least 12,000 feet AGL
Clouds:sky clear below 12,000 feet AGL
QC Flag:automated observation with no human augmentation